Time;durP1;ratioP1;P1;durP2;ratioP2;P2;SDS_P1;SDS_P2;PMS_P1;PMS_P2;Temp;Humidity;BMP_temperature;BMP_pressure;BME280_temperature;BME280_humidity;BME280_pressure;Samples;Min_cycle;Max_cycle;Signal;HPM_P1;HPM_P2
2020/12/26 08:39:38;;;;;;;5.25;0.40;;;15.00;72.60;;;;;;4808131;27;8104476;-50
2020/12/26 08:42:06;;;;;;;1.65;0.70;;;15.10;62.40;;;;;;5090038;28;20059;-52
2020/12/26 08:44:32;;;;;;;5.05;1.13;;;15.10;62.40;;;;;;5090048;28;20023;-55
2020/12/26 08:46:58;;;;;;;3.50;0.80;;;15.10;62.40;;;;;;5089738;28;20103;-56
2020/12/26 08:49:24;;;;;;;2.13;0.57;;;15.10;62.40;;;;;;5089909;28;20478;-53
2020/12/26 08:51:49;;;;;;;3.92;0.75;;;15.10;62.30;;;;;;5090076;28;20075;-56
2020/12/26 08:54:23;;;;;;;4.07;0.85;;;15.00;62.60;;;;;;5090139;28;20382;-56
2020/12/26 08:56:49;;;;;;;6.00;0.70;;;15.20;62.70;;;;;;5089660;28;20051;-57
2020/12/26 08:59:27;;;;;;;5.50;0.95;;;15.10;62.60;;;;;;5089618;28;20081;-57
2020/12/26 09:01:56;;;;;;;2.17;0.70;;;15.10;62.30;;;;;;5089808;28;20034;-56
2020/12/26 09:04:22;;;;;;;2.95;0.60;;;15.10;61.90;;;;;;5088464;28;20390;-57
2020/12/26 09:06:48;;;;;;;2.83;0.60;;;15.20;62.70;;;;;;5089529;28;20470;-55
2020/12/26 09:09:19;;;;;;;4.22;0.80;;;15.20;62.40;;;;;;5089449;28;20028;-56
2020/12/26 09:11:46;;;;;;;3.50;0.93;;;15.40;61.90;;;;;;5089777;28;20028;-56
2020/12/26 09:14:20;;;;;;;8.88;0.70;;;15.50;61.70;;;;;;5089631;28;20035;-56
2020/12/26 09:16:46;;;;;;;3.83;0.70;;;15.60;61.50;;;;;;5089312;28;20031;-56
2020/12/26 09:19:11;;;;;;;4.13;0.60;;;15.70;61.00;;;;;;5089205;28;20482;-56
2020/12/26 09:21:37;;;;;;;2.65;0.80;;;15.80;60.60;;;;;;5089292;28;20467;-56
2020/12/26 09:24:14;;;;;;;4.28;1.10;;;15.90;60.40;;;;;;5089474;28;20027;-56
2020/12/26 09:26:40;;;;;;;2.80;0.80;;;16.10;60.10;;;;;;5089259;28;20038;-57
2020/12/26 09:29:05;;;;;;;5.18;0.70;;;16.10;59.90;;;;;;5089430;28;20532;-56
2020/12/26 09:31:38;;;;;;;1.52;0.90;;;16.20;59.40;;;;;;5089678;28;20098;-55
2020/12/26 09:34:39;;;;;;;1.40;1.00;;;16.20;59.20;;;;;;5070746;28;20581;-55
2020/12/26 09:37:06;;;;;;;2.72;0.90;;;16.30;58.90;;;;;;5026121;28;20021;-54
2020/12/26 09:39:32;;;;;;;1.75;0.77;;;16.30;59.00;;;;;;5056185;28;20036;-57
2020/12/26 09:41:58;;;;;;;1.77;0.63;;;16.30;58.80;;;;;;5069201;28;20080;-57
2020/12/26 09:44:23;;;;;;;2.60;0.68;;;16.30;58.80;;;;;;5068542;28;20060;-57
2020/12/26 09:46:56;;;;;;;3.85;0.77;;;16.40;58.40;;;;;;5068548;28;20017;-57
2020/12/26 09:49:22;;;;;;;1.48;0.60;;;16.40;58.40;;;;;;5063331;28;20040;-56
2020/12/26 09:51:48;;;;;;;2.05;0.68;;;16.40;58.20;;;;;;5055687;28;20025;-56
2020/12/26 09:54:13;;;;;;;5.32;1.08;;;16.40;58.20;;;;;;5055175;28;20040;-55
2020/12/26 09:56:39;;;;;;;1.45;0.80;;;16.40;57.60;;;;;;5055027;28;20501;-55
2020/12/26 09:59:04;;;;;;;0.68;0.50;;;16.40;57.90;;;;;;5054999;28;20363;-57
2020/12/26 10:01:30;;;;;;;2.42;1.02;;;16.50;58.10;;;;;;5036941;28;20490;-56
2020/12/26 10:03:55;;;;;;;4.15;0.75;;;16.50;58.10;;;;;;5055372;28;20017;-56
2020/12/26 10:06:21;;;;;;;1.08;0.85;;;16.40;57.90;;;;;;5055021;28;20415;-56
2020/12/26 10:08:48;;;;;;;2.97;1.08;;;16.50;57.20;;;;;;5055526;28;20033;-54
2020/12/26 10:11:18;;;;;;;1.13;0.73;;;16.40;57.00;;;;;;5054952;28;20108;-54
2020/12/26 10:13:44;;;;;;;;;;;16.40;57.10;;;;;;5055319;28;20036;-56
2020/12/26 10:16:10;;;;;;;3.20;1.00;;;16.40;57.20;;;;;;5054830;28;20278;-55
2020/12/26 10:18:36;;;;;;;1.83;1.10;;;16.50;56.40;;;;;;5054645;28;20037;-55
2020/12/26 10:21:03;;;;;;;3.28;1.65;;;16.40;56.50;;;;;;5054714;28;20449;-56
2020/12/26 10:23:28;;;;;;;4.28;1.45;;;16.40;56.60;;;;;;5036623;28;20494;-56
2020/12/26 10:25:54;;;;;;;1.75;0.80;;;16.40;55.90;;;;;;5054785;28;20021;-55
2020/12/26 10:28:20;;;;;;;1.77;0.88;;;16.30;55.90;;;;;;5054453;28;20025;-55
2020/12/26 10:30:49;;;;;;;2.15;0.93;;;16.30;55.90;;;;;;5036709;28;20108;-56
2020/12/26 10:33:14;;;;;;;2.10;1.02;;;16.30;56.50;;;;;;5054410;28;20087;-55
2020/12/26 10:35:41;;;;;;;6.13;1.13;;;16.30;56.60;;;;;;5054160;28;20017;-54
2020/12/26 10:38:06;;;;;;;2.90;1.35;;;16.30;57.00;;;;;;5062244;27;20059;-56
2020/12/26 10:40:32;;;;;;;2.33;0.98;;;16.40;56.10;;;;;;5074311;28;20024;-57
2020/12/26 10:42:58;;;;;;;3.70;1.27;;;16.40;56.10;;;;;;5056223;28;20086;-56
2020/12/26 10:45:24;;;;;;;2.78;1.20;;;16.40;56.60;;;;;;5074193;28;20426;-56
2020/12/26 10:47:50;;;;;;;3.75;1.00;;;16.30;56.10;;;;;;5074156;28;20113;-56
2020/12/26 10:50:15;;;;;;;8.65;1.60;;;16.30;55.90;;;;;;5074162;28;20052;-57
2020/12/26 10:52:41;;;;;;;5.05;1.35;;;16.30;56.00;;;;;;5074227;28;20026;-56
2020/12/26 10:55:06;;;;;;;2.92;1.10;;;16.30;55.60;;;;;;5074129;28;20020;-55
2020/12/26 10:57:32;;;;;;;3.25;1.02;;;16.30;55.50;;;;;;5073955;28;20028;-56
2020/12/26 10:59:57;;;;;;;3.65;1.23;;;16.30;55.50;;;;;;5073996;28;20029;-56
2020/12/26 11:02:23;;;;;;;2.05;1.08;;;16.30;55.60;;;;;;5072864;28;20063;-56
2020/12/26 11:04:49;;;;;;;3.15;1.02;;;16.20;55.30;;;;;;5073900;28;20036;-57
2020/12/26 11:07:14;;;;;;;1.63;1.00;;;16.20;55.30;;;;;;5073943;28;20021;-56
2020/12/26 11:09:40;;;;;;;3.50;1.17;;;16.20;55.20;;;;;;5073860;28;20028;-56
2020/12/26 11:12:05;;;;;;;3.67;1.13;;;16.20;55.30;;;;;;5073732;28;20020;-56
2020/12/26 11:14:31;;;;;;;3.13;0.90;;;16.20;55.10;;;;;;5073359;28;20048;-56
2020/12/26 11:16:58;;;;;;;3.35;1.10;;;16.20;55.20;;;;;;5073564;28;20029;-56
2020/12/26 11:19:23;;;;;;;3.33;0.90;;;16.20;55.10;;;;;;5073432;28;20032;-56
2020/12/26 11:21:53;;;;;;;1.73;1.08;;;16.10;55.30;;;;;;5055469;28;20086;-56
2020/12/26 11:24:19;;;;;;;9.40;1.42;;;16.10;55.00;;;;;;5073115;28;20028;-56
2020/12/26 11:26:44;;;;;;;5.55;1.30;;;16.10;55.10;;;;;;5072647;28;20025;-56
2020/12/26 11:29:11;;;;;;;2.53;1.00;;;16.10;55.40;;;;;;5072285;28;20021;-56
2020/12/26 11:31:36;;;;;;;2.55;1.10;;;16.10;55.70;;;;;;5072274;28;20047;-57
2020/12/26 11:34:02;;;;;;;2.47;1.20;;;16.10;56.60;;;;;;5071224;28;20596;-55
2020/12/26 11:36:28;;;;;;;1.33;0.90;;;16.00;57.30;;;;;;5071425;28;20458;-56
2020/12/26 11:38:55;;;;;;;4.65;1.35;;;16.00;58.60;;;;;;5074519;27;20055;-56
2020/12/26 11:41:29;;;;;;;3.75;1.48;;;16.00;59.00;;;;;;5073166;28;20029;-55
2020/12/26 11:43:56;;;;;;;2.03;1.13;;;16.00;60.20;;;;;;5072903;28;20429;-56
2020/12/26 11:46:23;;;;;;;3.05;1.13;;;15.90;60.50;;;;;;5072865;28;20028;-55
2020/12/26 11:48:49;;;;;;;4.53;1.52;;;15.90;61.30;;;;;;5073056;28;20031;-55
2020/12/26 11:51:15;;;;;;;3.63;1.05;;;15.80;60.60;;;;;;5072963;28;20024;-56
2020/12/26 11:53:41;;;;;;;6.18;1.60;;;15.80;60.50;;;;;;5072821;28;20083;-55
2020/12/26 11:56:12;;;;;;;2.33;1.20;;;15.80;61.30;;;;;;5072729;28;20031;-55
2020/12/26 11:58:38;;;;;;;3.05;1.30;;;15.80;61.90;;;;;;5072719;28;20045;-56
2020/12/26 12:01:05;;;;;;;1.88;1.02;;;15.70;61.70;;;;;;5072821;28;20024;-55
2020/12/26 12:03:31;;;;;;;4.72;1.27;;;15.70;61.10;;;;;;5072533;28;20021;-56
2020/12/26 12:05:57;;;;;;;4.28;1.38;;;15.70;61.70;;;;;;5072452;28;20017;-56
2020/12/26 12:08:22;;;;;;;2.72;1.00;;;15.70;62.60;;;;;;5054660;28;20025;-54
2020/12/26 12:10:48;;;;;;;1.13;0.90;;;15.70;62.50;;;;;;5072650;28;20082;-54
2020/12/26 12:13:14;;;;;;;1.42;0.93;;;15.60;62.20;;;;;;5054431;28;20059;-55
2020/12/26 12:15:39;;;;;;;1.35;0.95;;;15.60;62.30;;;;;;5072489;28;20028;-56
2020/12/26 12:18:06;;;;;;;2.47;1.10;;;15.60;63.10;;;;;;5072681;28;20454;-55
2020/12/26 12:20:32;;;;;;;3.03;1.00;;;15.60;62.70;;;;;;5072519;28;20031;-55
2020/12/26 12:22:58;;;;;;;2.03;1.00;;;15.60;62.50;;;;;;5072395;28;20017;-56
2020/12/26 12:25:26;;;;;;;2.42;0.95;;;15.60;62.70;;;;;;5072452;28;20032;-53
2020/12/26 12:27:52;;;;;;;2.25;0.77;;;15.60;63.50;;;;;;5071640;28;20033;-56
2020/12/26 12:30:18;;;;;;;1.58;1.00;;;15.60;63.50;;;;;;5071496;28;20041;-55
2020/12/26 12:32:44;;;;;;;2.08;1.10;;;15.60;63.40;;;;;;5071743;28;20103;-55
2020/12/26 12:35:10;;;;;;;1.23;1.00;;;15.60;64.20;;;;;;5072596;28;20035;-56
2020/12/26 12:37:36;;;;;;;2.05;1.00;;;15.60;63.80;;;;;;5073592;28;20504;-57
2020/12/26 12:40:06;;;;;;;1.52;0.80;;;15.60;63.90;;;;;;5072328;28;20111;-57
2020/12/26 12:42:32;;;;;;;2.25;0.90;;;15.60;63.50;;;;;;5072347;28;20024;-54
2020/12/26 12:44:58;;;;;;;2.03;0.95;;;15.70;63.90;;;;;;5072330;28;20069;-55
2020/12/26 12:47:27;;;;;;;1.10;0.93;;;15.60;64.00;;;;;;5072257;28;20090;-56
2020/12/26 12:49:54;;;;;;;1.15;0.77;;;15.60;64.10;;;;;;5072250;28;20020;-55
2020/12/26 12:52:20;;;;;;;1.40;1.05;;;15.60;63.80;;;;;;5072229;28;20150;-56
2020/12/26 12:54:47;;;;;;;1.83;1.15;;;15.50;64.20;;;;;;5072289;28;20710;-56
2020/12/26 12:57:13;;;;;;;0.85;0.60;;;15.60;64.40;;;;;;5072174;28;20383;-56
2020/12/26 12:59:39;;;;;;;1.60;0.80;;;15.60;64.30;;;;;;5072104;28;20025;-56
2020/12/26 13:02:05;;;;;;;1.17;0.90;;;15.60;64.50;;;;;;5072253;28;20052;-56
2020/12/26 13:04:31;;;;;;;3.20;0.98;;;15.60;64.40;;;;;;5072393;28;20040;-56
2020/12/26 13:06:57;;;;;;;1.38;0.88;;;15.60;64.70;;;;;;5072078;28;20422;-56
2020/12/26 13:09:23;;;;;;;2.15;0.80;;;15.70;65.10;;;;;;5071814;28;20100;-56
2020/12/26 13:11:49;;;;;;;1.23;0.70;;;15.70;65.10;;;;;;5071949;28;20635;-54
2020/12/26 13:14:20;;;;;;;1.90;1.00;;;15.70;65.20;;;;;;5072037;28;20107;-54
2020/12/26 13:16:46;;;;;;;1.10;1.00;;;15.70;65.10;;;;;;5072173;28;20409;-56
2020/12/26 13:19:12;;;;;;;0.73;0.65;;;15.70;65.40;;;;;;5071975;28;20120;-54
2020/12/26 13:21:38;;;;;;;1.70;0.80;;;15.70;65.30;;;;;;5071962;28;20171;-56
2020/12/26 13:24:03;;;;;;;2.17;1.10;;;15.80;65.50;;;;;;5054022;28;20098;-55
2020/12/26 13:26:29;;;;;;;1.48;0.90;;;15.70;65.50;;;;;;5057717;28;20017;-55
2020/12/26 13:28:55;;;;;;;2.40;1.10;;;15.70;65.50;;;;;;5057729;28;20540;-54
2020/12/26 13:31:35;;;;;;;2.88;0.98;;;15.70;65.70;;;;;;5075838;28;20024;-55
2020/12/26 13:34:02;;;;;;;1.70;0.75;;;15.70;65.40;;;;;;5075272;28;20031;-56
2020/12/26 13:36:28;;;;;;;2.45;1.00;;;15.70;65.50;;;;;;5075514;28;20056;-56
2020/12/26 13:38:53;;;;;;;1.08;0.90;;;15.70;65.70;;;;;;5076661;27;20088;-55
2020/12/26 13:41:25;;;;;;;1.55;0.95;;;15.70;65.50;;;;;;5075348;28;20048;-55
2020/12/26 13:43:51;;;;;;;1.08;0.95;;;15.80;65.40;;;;;;5057997;28;20063;-56
2020/12/26 13:46:17;;;;;;;2.22;1.05;;;15.70;65.60;;;;;;5075249;28;20060;-56
2020/12/26 13:48:43;;;;;;;2.70;0.93;;;15.70;65.50;;;;;;5075319;28;20021;-56
2020/12/26 13:51:10;;;;;;;1.67;1.00;;;15.70;65.80;;;;;;5057187;28;20066;-55
2020/12/26 13:53:36;;;;;;;0.90;0.70;;;15.80;65.70;;;;;;5074797;28;20021;-55
2020/12/26 13:56:03;;;;;;;1.95;0.88;;;15.70;65.60;;;;;;5075037;28;20523;-56
2020/12/26 13:58:28;;;;;;;1.38;0.70;;;15.70;65.70;;;;;;5075013;28;20114;-56
2020/12/26 14:00:54;;;;;;;2.30;0.88;;;15.70;65.40;;;;;;5075220;28;20058;-57
2020/12/26 14:03:20;;;;;;;1.58;0.80;;;15.70;65.50;;;;;;5074820;28;20363;-53
2020/12/26 14:05:45;;;;;;;2.05;1.00;;;15.70;65.40;;;;;;5074944;28;20036;-56
2020/12/26 14:08:11;;;;;;;0.85;0.80;;;15.70;65.50;;;;;;5074941;28;20028;-56
2020/12/26 14:10:36;;;;;;;1.67;1.00;;;15.70;65.50;;;;;;5074922;28;20531;-55
2020/12/26 14:13:02;;;;;;;0.80;0.80;;;15.70;66.20;;;;;;5074414;28;20024;-56
2020/12/26 14:15:28;;;;;;;1.75;0.90;;;15.70;65.40;;;;;;5074806;28;20044;-56
2020/12/26 14:17:54;;;;;;;3.85;1.00;;;15.70;65.40;;;;;;5074760;28;20037;-55
2020/12/26 14:20:19;;;;;;;1.50;0.90;;;15.70;65.30;;;;;;5074802;28;20028;-55
2020/12/26 14:22:45;;;;;;;1.05;0.90;;;15.70;65.40;;;;;;5074606;28;20103;-54
2020/12/26 14:25:10;;;;;;;1.23;1.00;;;15.70;65.30;;;;;;5074529;28;20052;-56
2020/12/26 14:27:36;;;;;;;2.47;1.00;;;15.70;65.30;;;;;;5074651;28;20024;-56
2020/12/26 14:30:03;;;;;;;1.58;1.00;;;15.80;65.40;;;;;;5074590;28;20483;-56
2020/12/26 14:32:29;;;;;;;1.75;0.93;;;15.70;65.20;;;;;;5074288;28;20021;-56
2020/12/26 14:34:54;;;;;;;2.33;1.00;;;15.70;65.20;;;;;;5074316;28;20370;-58
2020/12/26 14:37:20;;;;;;;2.65;1.35;;;15.70;65.20;;;;;;5056091;28;20040;-56
2020/12/26 14:39:45;;;;;;;2.08;0.70;;;15.70;65.00;;;;;;5075657;27;20105;-54
2020/12/26 14:42:11;;;;;;;1.80;0.98;;;15.70;64.90;;;;;;5073960;28;20387;-56
2020/12/26 14:44:37;;;;;;;3.13;1.20;;;15.70;64.70;;;;;;5056155;28;20036;-57
2020/12/26 14:47:03;;;;;;;1.48;0.82;;;15.80;63.00;;;;;;5074263;28;20425;-55
2020/12/26 14:49:29;;;;;;;3.38;1.02;;;15.80;64.40;;;;;;5072855;28;20024;-57
2020/12/26 14:51:56;;;;;;;1.15;0.68;;;15.80;63.10;;;;;;5073471;28;20423;-56
2020/12/26 14:54:22;;;;;;;1.80;1.00;;;15.90;62.90;;;;;;5072994;28;20021;-57
2020/12/26 14:56:48;;;;;;;1.80;0.85;;;15.90;62.80;;;;;;5073787;28;20036;-56
2020/12/26 14:59:14;;;;;;;1.27;0.77;;;15.90;62.70;;;;;;5073807;28;20036;-56
2020/12/26 15:01:41;;;;;;;1.92;0.80;;;16.00;63.20;;;;;;5073782;28;20021;-56
2020/12/26 15:04:07;;;;;;;1.60;0.93;;;16.00;61.70;;;;;;5074113;28;20017;-56
2020/12/26 15:06:33;;;;;;;1.45;0.90;;;16.00;62.20;;;;;;5073865;28;20024;-56
2020/12/26 15:08:59;;;;;;;3.78;1.10;;;16.10;62.40;;;;;;5073927;28;20021;-55
2020/12/26 15:11:24;;;;;;;0.73;0.73;;;16.10;61.90;;;;;;5073451;28;20394;-56
2020/12/26 15:13:50;;;;;;;1.55;0.77;;;16.10;62.40;;;;;;5074075;28;20028;-54
2020/12/26 15:16:16;;;;;;;1.25;0.75;;;16.20;61.40;;;;;;5073386;28;20395;-56
2020/12/26 15:18:45;;;;;;;1.63;0.82;;;16.20;61.70;;;;;;5073607;28;20040;-56
2020/12/26 15:21:11;;;;;;;1.25;0.80;;;16.20;62.30;;;;;;5073703;28;20048;-56
2020/12/26 15:23:37;;;;;;;5.68;1.08;;;16.20;62.10;;;;;;5073402;28;20016;-56
2020/12/26 15:26:03;;;;;;;3.03;1.20;;;16.30;62.20;;;;;;5073358;28;20021;-56
2020/12/26 15:28:29;;;;;;;2.75;1.05;;;16.30;62.00;;;;;;5073423;28;20029;-56
2020/12/26 15:30:55;;;;;;;2.42;0.98;;;16.30;61.80;;;;;;5073773;28;20017;-57
2020/12/26 15:33:20;;;;;;;1.60;1.00;;;16.40;61.70;;;;;;5072886;28;20024;-57
2020/12/26 15:35:46;;;;;;;2.63;0.75;;;16.40;61.70;;;;;;5073102;28;20146;-58
2020/12/26 15:38:12;;;;;;;1.65;1.13;;;16.40;61.60;;;;;;5075069;27;20047;-58
2020/12/26 15:40:38;;;;;;;2.92;0.63;;;16.40;61.50;;;;;;5055321;28;20553;-58
2020/12/26 15:43:09;;;;;;;0.80;0.68;;;16.50;61.40;;;;;;5073090;28;20048;-59
2020/12/26 15:45:39;;;;;;;1.65;1.15;;;16.50;61.60;;;;;;5073606;28;20029;-57
2020/12/26 15:48:06;;;;;;;3.83;1.30;;;16.50;62.70;;;;;;5048671;28;20032;-57
2020/12/26 15:50:32;;;;;;;0.95;0.80;;;16.50;63.60;;;;;;5052781;28;20024;-58
2020/12/26 15:52:58;;;;;;;2.60;0.85;;;16.60;64.50;;;;;;5054423;28;20131;-57
2020/12/26 15:55:23;;;;;;;2.10;1.02;;;16.60;64.90;;;;;;5072183;28;20506;-57
2020/12/26 15:57:49;;;;;;;1.88;1.00;;;16.50;65.40;;;;;;5072393;28;20024;-55
2020/12/26 16:00:15;;;;;;;1.23;0.70;;;16.50;64.90;;;;;;5054665;28;20051;-58
2020/12/26 16:02:40;;;;;;;2.40;0.95;;;16.50;65.80;;;;;;5072148;28;20048;-57
2020/12/26 16:05:07;;;;;;;3.72;1.02;;;16.50;67.00;;;;;;5071791;28;20099;-58
2020/12/26 16:07:32;;;;;;;1.27;0.90;;;16.50;66.40;;;;;;5071859;28;20063;-58
2020/12/26 16:09:58;;;;;;;2.80;1.40;;;16.50;67.10;;;;;;5071986;28;20052;-58
2020/12/26 16:12:24;;;;;;;1.10;1.00;;;16.50;67.30;;;;;;5072206;28;20052;-57
2020/12/26 16:14:49;;;;;;;1.67;1.17;;;16.50;67.50;;;;;;5071835;28;20037;-56
2020/12/26 16:17:15;;;;;;;2.50;1.70;;;16.50;67.50;;;;;;5071772;28;20067;-57
2020/12/26 16:19:40;;;;;;;3.30;1.10;;;16.50;67.80;;;;;;5071866;28;20522;-57
2020/12/26 16:22:06;;;;;;;3.25;1.23;;;16.50;66.30;;;;;;5071850;28;20527;-57
2020/12/26 16:24:32;;;;;;;3.33;1.15;;;16.50;66.30;;;;;;5071595;28;20379;-57
2020/12/26 16:26:58;;;;;;;3.28;1.00;;;16.50;66.40;;;;;;5053652;28;20486;-57
2020/12/26 16:29:23;;;;;;;2.17;0.98;;;16.40;65.70;;;;;;5053778;28;20029;-58
2020/12/26 16:31:49;;;;;;;1.00;0.90;;;16.40;65.00;;;;;;5053781;28;20048;-58
2020/12/26 16:34:14;;;;;;;1.15;0.82;;;16.30;64.90;;;;;;5071659;28;20025;-58
2020/12/26 16:36:40;;;;;;;1.63;1.30;;;16.30;65.30;;;;;;5071636;28;20495;-58
2020/12/26 16:39:06;;;;;;;2.28;1.40;;;16.20;66.40;;;;;;5073555;27;20060;-58
2020/12/26 16:41:36;;;;;;;2.83;1.10;;;16.20;66.40;;;;;;5071718;28;20419;-58
2020/12/26 16:44:03;;;;;;;1.38;1.10;;;16.10;66.80;;;;;;5071828;28;20044;-57
2020/12/26 16:46:29;;;;;;;1.63;1.13;;;16.10;66.30;;;;;;5071710;28;20386;-57
2020/12/26 16:48:55;;;;;;;1.67;1.10;;;16.10;66.00;;;;;;5071695;28;20535;-58
2020/12/26 16:51:25;;;;;;;3.45;1.27;;;16.00;66.10;;;;;;5071615;28;20111;-58
2020/12/26 16:53:51;;;;;;;2.20;1.60;;;16.00;66.60;;;;;;5071337;28;20020;-57
2020/12/26 16:56:18;;;;;;;1.92;1.15;;;15.90;66.80;;;;;;5071542;28;20013;-58
2020/12/26 16:58:44;;;;;;;2.00;1.40;;;15.90;67.40;;;;;;5071474;28;20494;-58
2020/12/26 17:01:27;;;;;;;2.42;1.23;;;15.90;67.30;;;;;;5075331;28;20020;-58
2020/12/26 17:03:53;;;;;;;2.58;1.10;;;15.80;66.80;;;;;;5075503;28;20028;-58
2020/12/26 17:06:25;;;;;;;2.38;1.23;;;15.80;67.80;;;;;;5075534;28;20025;-58
2020/12/26 17:08:52;;;;;;;1.65;1.17;;;15.80;67.70;;;;;;5075469;28;20048;-57
2020/12/26 17:11:18;;;;;;;0.85;0.85;;;15.70;67.20;;;;;;5075748;28;20356;-57
2020/12/26 17:13:44;;;;;;;1.88;1.08;;;15.80;67.80;;;;;;5075171;28;20039;-58
2020/12/26 17:16:11;;;;;;;1.52;1.30;;;15.70;68.60;;;;;;5075228;28;20074;-57
2020/12/26 17:18:37;;;;;;;2.25;1.10;;;15.70;69.00;;;;;;5075159;28;20083;-57
2020/12/26 17:21:08;;;;;;;0.90;0.90;;;15.70;69.20;;;;;;5075208;28;20536;-59
2020/12/26 17:23:34;;;;;;;0.70;0.70;;;15.70;69.20;;;;;;5075120;28;20478;-58
2020/12/26 17:26:00;;;;;;;0.90;0.90;;;15.70;69.50;;;;;;5075041;28;20035;-56
2020/12/26 17:28:25;;;;;;;1.58;1.20;;;15.70;69.90;;;;;;5073387;28;20021;-57
2020/12/26 17:30:51;;;;;;;1.67;0.95;;;15.70;69.80;;;;;;5056855;28;20017;-60
2020/12/26 17:33:17;;;;;;;1.10;0.98;;;15.70;70.20;;;;;;5073859;28;20059;-57
2020/12/26 17:35:42;;;;;;;1.85;1.10;;;15.80;69.90;;;;;;5074603;28;20021;-58
2020/12/26 17:38:08;;;;;;;2.55;0.93;;;15.80;69.90;;;;;;5076464;27;20033;-58
2020/12/26 17:40:34;;;;;;;1.58;1.05;;;15.80;69.80;;;;;;5074716;28;20025;-58
2020/12/26 17:42:59;;;;;;;1.95;1.20;;;15.70;69.70;;;;;;5056825;28;20025;-58
2020/12/26 17:45:25;;;;;;;1.20;1.00;;;15.70;70.30;;;;;;5074902;28;20017;-57
2020/12/26 17:47:50;;;;;;;2.40;1.38;;;15.70;70.50;;;;;;5039815;28;20027;-58
2020/12/26 17:50:16;;;;;;;1.45;0.80;;;15.70;70.60;;;;;;5074714;28;20510;-58
2020/12/26 17:52:41;;;;;;;1.58;1.10;;;15.70;70.60;;;;;;5074599;28;20100;-58
2020/12/26 17:55:08;;;;;;;1.20;0.93;;;15.70;70.60;;;;;;5074908;28;20032;-57
2020/12/26 17:57:34;;;;;;;1.00;0.90;;;15.70;70.40;;;;;;5074383;28;20056;-58
2020/12/26 17:59:59;;;;;;;1.58;0.75;;;15.70;70.60;;;;;;5074497;28;20056;-58
2020/12/26 18:02:25;;;;;;;1.35;0.95;;;15.70;69.90;;;;;;5074474;28;20029;-58
2020/12/26 18:04:51;;;;;;;1.20;0.90;;;15.70;70.60;;;;;;5074380;28;20032;-58
2020/12/26 18:07:17;;;;;;;1.88;1.00;;;15.70;70.40;;;;;;5073985;28;20056;-58
2020/12/26 18:09:43;;;;;;;1.73;1.00;;;15.60;69.90;;;;;;5074115;28;20059;-58
2020/12/26 18:12:08;;;;;;;2.42;1.15;;;15.70;69.90;;;;;;5074091;28;20100;-58
2020/12/26 18:14:34;;;;;;;2.75;1.15;;;15.60;70.30;;;;;;5056289;28;20392;-57
2020/12/26 18:17:00;;;;;;;1.42;1.10;;;15.70;69.80;;;;;;5056301;28;20020;-58
2020/12/26 18:19:25;;;;;;;1.52;1.40;;;15.70;69.40;;;;;;5074046;28;20367;-57
2020/12/26 18:21:51;;;;;;;1.75;1.17;;;15.70;69.60;;;;;;5056055;28;20024;-58
2020/12/26 18:24:18;;;;;;;2.03;1.13;;;15.70;70.40;;;;;;5055991;28;20025;-58
2020/12/26 18:26:45;;;;;;;1.08;0.90;;;15.70;69.40;;;;;;5074174;28;20025;-57
2020/12/26 18:29:10;;;;;;;1.05;1.00;;;15.70;68.70;;;;;;5073943;28;20024;-58
2020/12/26 18:31:36;;;;;;;1.38;1.20;;;15.60;69.10;;;;;;5074001;28;20025;-59
2020/12/26 18:34:05;;;;;;;1.48;0.82;;;15.60;68.70;;;;;;5073822;28;20017;-57
2020/12/26 18:36:31;;;;;;;1.83;0.90;;;15.60;69.00;;;;;;5073782;28;20467;-59
2020/12/26 18:38:57;;;;;;;0.98;0.98;;;15.60;68.90;;;;;;5075562;27;20116;-57
2020/12/26 18:41:24;;;;;;;1.20;1.10;;;15.60;68.90;;;;;;5073726;28;20074;-58
2020/12/26 18:43:57;;;;;;;1.15;0.80;;;15.60;69.00;;;;;;5073381;28;20551;-58
2020/12/26 18:46:29;;;;;;;2.08;1.10;;;15.60;69.00;;;;;;5073482;28;20029;-58
2020/12/26 18:48:55;;;;;;;1.10;1.00;;;15.60;68.70;;;;;;5073476;28;20463;-58
2020/12/26 18:51:20;;;;;;;1.17;1.08;;;15.60;68.40;;;;;;5073465;28;20020;-58
2020/12/26 18:53:46;;;;;;;1.33;0.90;;;15.60;68.40;;;;;;5055406;28;20112;-57
2020/12/26 18:56:17;;;;;;;1.33;0.95;;;15.60;68.80;;;;;;5073484;28;20103;-58
2020/12/26 18:58:43;;;;;;;1.17;0.85;;;15.60;67.80;;;;;;5073288;28;20025;-59
2020/12/26 19:01:08;;;;;;;1.20;1.10;;;15.60;68.40;;;;;;5073272;28;20016;-58
2020/12/26 19:03:34;;;;;;;1.00;0.90;;;15.60;68.20;;;;;;5073329;28;20020;-58
2020/12/26 19:05:59;;;;;;;1.00;0.80;;;15.60;68.40;;;;;;5055253;28;20515;-59
2020/12/26 19:08:25;;;;;;;0.90;0.90;;;15.60;68.30;;;;;;5055817;28;20020;-58
2020/12/26 19:10:50;;;;;;;2.38;0.93;;;15.50;68.30;;;;;;5055251;28;20026;-59
2020/12/26 19:13:16;;;;;;;1.88;1.10;;;15.60;68.00;;;;;;5073055;28;20029;-57
2020/12/26 19:15:42;;;;;;;1.77;1.00;;;15.60;67.40;;;;;;5055448;28;20028;-57
2020/12/26 19:18:07;;;;;;;1.35;0.80;;;15.70;66.90;;;;;;5072946;28;20098;-56
2020/12/26 19:20:33;;;;;;;3.47;0.90;;;15.70;66.60;;;;;;5072780;28;20016;-57
2020/12/26 19:22:59;;;;;;;2.38;0.80;;;15.80;65.80;;;;;;5071956;28;20032;-58
2020/12/26 19:25:25;;;;;;;0.82;0.80;;;15.80;65.70;;;;;;5072814;28;20113;-57
2020/12/26 19:27:51;;;;;;;1.40;0.90;;;15.90;66.00;;;;;;5072858;28;20028;-58
2020/12/26 19:30:17;;;;;;;1.67;1.00;;;15.90;65.90;;;;;;5054785;28;20023;-58
2020/12/26 19:32:42;;;;;;;1.23;1.05;;;15.90;65.70;;;;;;5072596;28;20029;-57
2020/12/26 19:35:08;;;;;;;2.03;1.17;;;15.90;65.30;;;;;;5072701;28;20390;-57
2020/12/26 19:37:34;;;;;;;1.10;0.98;;;15.90;65.10;;;;;;5072780;28;20016;-58
2020/12/26 19:40:00;;;;;;;1.40;0.70;;;15.90;64.80;;;;;;5074386;27;20147;-58
2020/12/26 19:42:25;;;;;;;1.83;0.80;;;15.80;64.40;;;;;;5054654;28;20429;-57
2020/12/26 19:44:51;;;;;;;1.00;0.90;;;15.90;64.90;;;;;;5072636;28;20098;-58
2020/12/26 19:47:21;;;;;;;1.83;0.95;;;15.90;64.80;;;;;;5072594;28;20078;-56
2020/12/26 19:49:47;;;;;;;;;;;15.90;64.70;;;;;;5072965;28;20054;-58
2020/12/26 19:52:12;;;;;;;1.25;1.15;;;15.90;64.30;;;;;;5072541;28;19991;-57
2020/12/26 19:54:38;;;;;;;2.70;1.00;;;15.90;64.50;;;;;;5054589;28;20040;-57
2020/12/26 19:57:05;;;;;;;1.38;1.10;;;15.90;64.40;;;;;;5072420;28;20021;-58
2020/12/26 19:59:30;;;;;;;2.22;1.00;;;15.90;64.00;;;;;;5072238;28;20712;-59
2020/12/26 20:01:57;;;;;;;1.20;0.90;;;15.90;63.80;;;;;;5072295;28;20120;-58
2020/12/26 20:04:23;;;;;;;1.45;0.90;;;15.90;64.40;;;;;;5072240;28;20073;-58
2020/12/26 20:06:52;;;;;;;1.02;0.88;;;15.90;64.30;;;;;;5072224;28;20016;-60
2020/12/26 20:09:18;;;;;;;1.47;0.93;;;15.90;64.00;;;;;;5054724;28;20398;-59
2020/12/26 20:11:44;;;;;;;1.70;1.05;;;15.90;64.20;;;;;;5072046;28;20020;-59
2020/12/26 20:14:09;;;;;;;1.83;1.20;;;15.90;63.70;;;;;;5071989;28;20040;-57
2020/12/26 20:16:39;;;;;;;3.13;1.10;;;15.90;63.80;;;;;;5071941;28;20058;-59
2020/12/26 20:19:05;;;;;;;1.75;1.20;;;15.90;63.90;;;;;;5071907;28;20032;-58
2020/12/26 20:21:31;;;;;;;1.23;1.02;;;15.90;63.70;;;;;;5072075;28;20035;-57
2020/12/26 20:23:57;;;;;;;2.92;1.50;;;15.90;63.50;;;;;;5071858;28;20028;-57
2020/12/26 20:26:23;;;;;;;3.88;1.50;;;15.90;63.50;;;;;;5071799;28;20021;-59
2020/12/26 20:28:49;;;;;;;2.63;2.00;;;15.90;63.40;;;;;;5071819;28;20078;-58
2020/12/26 20:31:14;;;;;;;4.20;2.10;;;15.90;63.30;;;;;;5071500;28;20059;-58
2020/12/26 20:33:40;;;;;;;2.22;1.40;;;15.90;63.10;;;;;;5071623;28;20028;-58
2020/12/26 20:36:06;;;;;;;2.65;1.50;;;15.80;62.50;;;;;;5071779;28;20031;-58
2020/12/26 20:38:33;;;;;;;2.65;1.80;;;15.80;62.70;;;;;;5073624;27;20467;-58
2020/12/26 20:40:58;;;;;;;1.67;1.42;;;15.80;62.30;;;;;;5071828;28;20107;-58
2020/12/26 20:43:24;;;;;;;2.40;1.70;;;15.80;62.60;;;;;;5071748;28;20116;-58
2020/12/26 20:45:50;;;;;;;1.75;1.42;;;15.80;62.30;;;;;;5053700;28;20314;-58
2020/12/26 20:48:15;;;;;;;2.40;1.80;;;15.80;62.20;;;;;;5071540;28;20477;-58
2020/12/26 20:50:41;;;;;;;2.03;1.83;;;15.70;61.80;;;;;;5053765;28;20088;-58
2020/12/26 20:53:07;;;;;;;1.70;1.60;;;15.80;61.70;;;;;;5071622;28;20505;-56
2020/12/26 20:55:32;;;;;;;2.15;1.67;;;15.80;61.70;;;;;;5071597;28;20103;-57
2020/12/26 20:57:58;;;;;;;2.35;1.73;;;15.70;61.50;;;;;;5071458;28;20021;-56
2020/12/26 21:00:23;;;;;;;3.15;1.98;;;15.70;61.80;;;;;;5053545;28;20039;-56
2020/12/26 21:02:49;;;;;;;2.88;1.60;;;15.70;61.80;;;;;;5053469;28;20075;-57
2020/12/26 21:05:14;;;;;;;2.95;2.05;;;15.70;61.70;;;;;;5053338;28;20021;-58
2020/12/26 21:07:40;;;;;;;2.55;1.88;;;15.70;62.20;;;;;;5071351;28;20025;-58
2020/12/26 21:10:06;;;;;;;2.05;1.80;;;15.80;61.80;;;;;;5071587;28;20031;-57
2020/12/26 21:12:32;;;;;;;3.13;1.67;;;15.70;61.90;;;;;;5071483;28;20099;-56
2020/12/26 21:14:57;;;;;;;2.33;2.03;;;15.70;61.80;;;;;;5071303;28;20029;-57
2020/12/26 21:17:23;;;;;;;1.95;1.73;;;15.70;61.40;;;;;;5071264;28;20031;-58
2020/12/26 21:19:49;;;;;;;3.50;1.75;;;15.70;61.50;;;;;;5069369;28;20561;-57
2020/12/26 21:22:14;;;;;;;3.63;1.65;;;15.60;61.70;;;;;;5069344;28;20035;-58